sensor_id;sensor_type;location;lat;lon;timestamp;noise_LAeq;noise_LA_min;noise_LA_max;noise_LA01;noise_LA95
65079;Laerm;52655;52.218;5.964;2023-03-08T00:00:20;33.9;29.6;51.4;;
65079;Laerm;52655;52.218;5.964;2023-03-08T00:02:20;31.1;29.5;36.7;;
65079;Laerm;52655;52.218;5.964;2023-03-08T00:04:20;30.9;28.8;47.8;;
65079;Laerm;52655;52.218;5.964;2023-03-08T00:06:20;30.8;29.1;40.0;;
65079;Laerm;52655;52.218;5.964;2023-03-08T00:10:20;30.6;29.1;35.0;;
65079;Laerm;52655;52.218;5.964;2023-03-08T00:12:20;34.0;29.4;47.4;;
65079;Laerm;52655;52.218;5.964;2023-03-08T00:14:20;30.7;29.3;34.9;;
65079;Laerm;52655;52.218;5.964;2023-03-08T00:18:20;35.4;29.6;46.7;;
65079;Laerm;52655;52.218;5.964;2023-03-08T00:20:20;30.6;29.0;33.9;;
65079;Laerm;52655;52.218;5.964;2023-03-08T00:26:20;40.0;29.1;58.0;;
65079;Laerm;52655;52.218;5.964;2023-03-08T00:28:22;39.1;28.8;56.6;;
65079;Laerm;52655;52.218;5.964;2023-03-08T00:30:20;32.4;29.9;45.2;;
65079;Laerm;52655;52.218;5.964;2023-03-08T00:33:06;35.1;29.4;51.6;;
65079;Laerm;52655;52.218;5.964;2023-03-08T00:35:06;32.0;29.1;40.0;;
65079;Laerm;52655;52.218;5.964;2023-03-08T00:36:21;37.6;29.1;56.8;;
65079;Laerm;52655;52.218;5.964;2023-03-08T00:38:21;32.0;29.0;43.1;;
65079;Laerm;52655;52.218;5.964;2023-03-08T00:40:21;40.4;28.7;59.8;;
65079;Laerm;52655;52.218;5.964;2023-03-08T00:42:21;31.0;29.0;37.8;;
65079;Laerm;52655;52.218;5.964;2023-03-08T00:44:21;41.6;29.2;60.8;;
65079;Laerm;52655;52.218;5.964;2023-03-08T00:46:21;30.8;29.0;34.0;;
65079;Laerm;52655;52.218;5.964;2023-03-08T00:48:21;36.5;29.3;54.1;;
65079;Laerm;52655;52.218;5.964;2023-03-08T00:50:21;37.5;29.6;56.2;;
65079;Laerm;52655;52.218;5.964;2023-03-08T00:52:21;30.7;29.2;42.8;;
65079;Laerm;52655;52.218;5.964;2023-03-08T00:54:21;36.0;28.8;53.4;;
65079;Laerm;52655;52.218;5.964;2023-03-08T00:56:21;30.5;29.0;35.2;;
65079;Laerm;52655;52.218;5.964;2023-03-08T00:58:24;30.5;29.1;33.2;;
65079;Laerm;52655;52.218;5.964;2023-03-08T01:00:21;32.0;29.2;46.6;;
65079;Laerm;52655;52.218;5.964;2023-03-08T01:04:21;30.1;28.9;34.2;;
65079;Laerm;52655;52.218;5.964;2023-03-08T01:06:22;29.7;28.4;32.6;;
65079;Laerm;52655;52.218;5.964;2023-03-08T01:09:23;36.2;28.7;54.6;;
65079;Laerm;52655;52.218;5.964;2023-03-08T01:10:55;30.7;28.8;38.5;;
65079;Laerm;52655;52.218;5.964;2023-03-08T01:14:22;45.7;29.9;56.5;;
65079;Laerm;52655;52.218;5.964;2023-03-08T01:16:37;35.8;29.0;50.2;;
65079;Laerm;52655;52.218;5.964;2023-03-08T01:18:53;34.8;29.1;49.6;;
65079;Laerm;52655;52.218;5.964;2023-03-08T01:22:22;31.9;28.9;37.6;;
65079;Laerm;52655;52.218;5.964;2023-03-08T01:24:38;33.7;28.8;49.4;;
65079;Laerm;52655;52.218;5.964;2023-03-08T01:26:53;31.8;29.0;39.8;;
65079;Laerm;52655;52.218;5.964;2023-03-08T01:31:10;37.1;28.7;54.8;;
65079;Laerm;52655;52.218;5.964;2023-03-08T01:32:22;30.2;28.5;35.2;;
65079;Laerm;52655;52.218;5.964;2023-03-08T01:34:22;30.7;28.6;36.6;;
65079;Laerm;52655;52.218;5.964;2023-03-08T01:36:23;30.0;28.2;34.9;;
65079;Laerm;52655;52.218;5.964;2023-03-08T01:38:22;29.9;28.2;36.0;;
65079;Laerm;52655;52.218;5.964;2023-03-08T01:40:22;37.9;28.7;58.8;;
65079;Laerm;52655;52.218;5.964;2023-03-08T01:42:23;29.3;28.3;31.2;;
65079;Laerm;52655;52.218;5.964;2023-03-08T01:44:22;29.6;28.4;44.8;;
65079;Laerm;52655;52.218;5.964;2023-03-08T01:46:35;29.3;28.4;32.1;;
65079;Laerm;52655;52.218;5.964;2023-03-08T01:49:12;30.9;28.9;40.8;;
65079;Laerm;52655;52.218;5.964;2023-03-08T01:50:23;37.3;28.8;56.6;;
65079;Laerm;52655;52.218;5.964;2023-03-08T01:52:24;31.4;29.2;37.8;;
65079;Laerm;52655;52.218;5.964;2023-03-08T01:54:26;32.1;29.1;38.5;;
65079;Laerm;52655;52.218;5.964;2023-03-08T01:56:23;31.7;29.0;37.8;;
65079;Laerm;52655;52.218;5.964;2023-03-08T02:00:24;31.2;28.8;46.9;;
65079;Laerm;52655;52.218;5.964;2023-03-08T02:02:23;29.9;28.6;36.8;;
65079;Laerm;52655;52.218;5.964;2023-03-08T02:04:24;31.2;28.8;51.8;;
65079;Laerm;52655;52.218;5.964;2023-03-08T02:06:23;32.1;29.5;35.5;;
65079;Laerm;52655;52.218;5.964;2023-03-08T02:08:23;30.7;28.8;34.0;;
65079;Laerm;52655;52.218;5.964;2023-03-08T02:12:23;30.2;29.0;42.4;;
65079;Laerm;52655;52.218;5.964;2023-03-08T02:14:23;30.0;29.0;43.3;;
65079;Laerm;52655;52.218;5.964;2023-03-08T02:16:23;31.6;29.6;36.5;;
65079;Laerm;52655;52.218;5.964;2023-03-08T02:20:31;36.0;29.0;53.6;;
65079;Laerm;52655;52.218;5.964;2023-03-08T02:22:24;34.4;28.8;51.7;;
65079;Laerm;52655;52.218;5.964;2023-03-08T02:24:24;30.2;28.6;33.5;;
65079;Laerm;52655;52.218;5.964;2023-03-08T02:26:24;30.9;29.1;34.6;;
65079;Laerm;52655;52.218;5.964;2023-03-08T02:28:24;30.5;28.8;41.9;;
65079;Laerm;52655;52.218;5.964;2023-03-08T02:30:27;30.2;28.6;43.6;;
65079;Laerm;52655;52.218;5.964;2023-03-08T02:32:24;30.2;28.8;32.6;;
65079;Laerm;52655;52.218;5.964;2023-03-08T02:34:24;30.8;28.9;45.5;;
65079;Laerm;52655;52.218;5.964;2023-03-08T02:36:24;37.0;28.9;51.8;;
65079;Laerm;52655;52.218;5.964;2023-03-08T02:38:24;31.7;28.6;35.5;;
65079;Laerm;52655;52.218;5.964;2023-03-08T02:41:09;31.4;29.3;38.9;;
65079;Laerm;52655;52.218;5.964;2023-03-08T02:42:24;30.7;28.8;34.3;;
65079;Laerm;52655;52.218;5.964;2023-03-08T02:44:24;29.9;28.5;39.7;;
65079;Laerm;52655;52.218;5.964;2023-03-08T02:46:24;30.2;29.0;33.0;;
65079;Laerm;52655;52.218;5.964;2023-03-08T02:48:24;30.7;28.8;33.5;;
65079;Laerm;52655;52.218;5.964;2023-03-08T02:54:24;30.0;28.5;36.2;;
65079;Laerm;52655;52.218;5.964;2023-03-08T02:56:24;41.1;28.7;60.3;;
65079;Laerm;52655;52.218;5.964;2023-03-08T03:02:25;33.2;29.2;41.3;;
65079;Laerm;52655;52.218;5.964;2023-03-08T03:04:25;30.0;28.8;33.5;;
65079;Laerm;52655;52.218;5.964;2023-03-08T03:06:25;36.0;28.3;55.1;;
65079;Laerm;52655;52.218;5.964;2023-03-08T03:08:25;30.0;28.6;36.2;;
65079;Laerm;52655;52.218;5.964;2023-03-08T03:10:25;29.7;28.1;34.2;;
65079;Laerm;52655;52.218;5.964;2023-03-08T03:12:25;36.7;28.4;56.8;;
65079;Laerm;52655;52.218;5.964;2023-03-08T03:14:25;30.5;28.9;34.9;;
65079;Laerm;52655;52.218;5.964;2023-03-08T03:16:25;39.5;29.2;60.3;;
65079;Laerm;52655;52.218;5.964;2023-03-08T03:19:10;29.9;28.5;31.9;;
65079;Laerm;52655;52.218;5.964;2023-03-08T03:20:25;29.8;28.5;36.4;;
65079;Laerm;52655;52.218;5.964;2023-03-08T03:22:26;30.5;29.4;35.4;;
65079;Laerm;52655;52.218;5.964;2023-03-08T03:24:25;29.8;28.6;35.0;;
65079;Laerm;52655;52.218;5.964;2023-03-08T03:26:25;30.0;28.4;34.9;;
65079;Laerm;52655;52.218;5.964;2023-03-08T03:28:25;29.8;28.4;36.0;;
65079;Laerm;52655;52.218;5.964;2023-03-08T03:30:25;36.5;29.1;54.6;;
65079;Laerm;52655;52.218;5.964;2023-03-08T03:32:26;34.1;29.0;42.4;;
65079;Laerm;52655;52.218;5.964;2023-03-08T03:34:26;38.2;29.3;56.8;;
65079;Laerm;52655;52.218;5.964;2023-03-08T03:36:26;30.9;29.2;36.7;;
65079;Laerm;52655;52.218;5.964;2023-03-08T03:42:26;32.8;29.2;43.3;;
65079;Laerm;52655;52.218;5.964;2023-03-08T03:44:27;36.3;30.8;46.3;;
65079;Laerm;52655;52.218;5.964;2023-03-08T03:46:26;34.7;29.0;45.5;;
65079;Laerm;52655;52.218;5.964;2023-03-08T03:48:26;36.9;29.1;56.6;;
65079;Laerm;52655;52.218;5.964;2023-03-08T03:50:26;29.5;28.5;35.6;;
65079;Laerm;52655;52.218;5.964;2023-03-08T03:52:26;30.9;28.8;37.4;;
65079;Laerm;52655;52.218;5.964;2023-03-08T03:54:26;30.7;29.4;32.8;;
65079;Laerm;52655;52.218;5.964;2023-03-08T03:56:26;30.0;28.6;31.2;;
65079;Laerm;52655;52.218;5.964;2023-03-08T03:58:26;36.9;28.8;56.0;;
65079;Laerm;52655;52.218;5.964;2023-03-08T04:00:26;34.7;28.8;51.0;;
65079;Laerm;52655;52.218;5.964;2023-03-08T04:02:26;30.9;29.6;33.7;;
65079;Laerm;52655;52.218;5.964;2023-03-08T04:04:26;32.0;30.4;36.2;;
65079;Laerm;52655;52.218;5.964;2023-03-08T04:06:27;37.3;30.7;56.0;;
65079;Laerm;52655;52.218;5.964;2023-03-08T04:10:27;38.9;30.7;57.5;;
65079;Laerm;52655;52.218;5.964;2023-03-08T04:12:27;35.2;30.8;49.8;;
65079;Laerm;52655;52.218;5.964;2023-03-08T04:14:27;32.1;30.3;38.1;;
65079;Laerm;52655;52.218;5.964;2023-03-08T04:16:27;36.9;30.2;54.6;;
65079;Laerm;52655;52.218;5.964;2023-03-08T04:18:27;36.6;30.1;52.4;;
65079;Laerm;52655;52.218;5.964;2023-03-08T04:20:27;35.6;30.3;53.6;;
65079;Laerm;52655;52.218;5.964;2023-03-08T04:22:27;36.7;30.2;53.3;;
65079;Laerm;52655;52.218;5.964;2023-03-08T04:24:27;39.8;31.3;56.3;;
65079;Laerm;52655;52.218;5.964;2023-03-08T04:26:27;33.6;30.7;39.2;;
65079;Laerm;52655;52.218;5.964;2023-03-08T04:28:27;34.3;30.4;47.3;;
65079;Laerm;52655;52.218;5.964;2023-03-08T04:30:27;32.8;31.1;44.1;;
65079;Laerm;52655;52.218;5.964;2023-03-08T04:32:27;31.9;30.4;43.1;;
65079;Laerm;52655;52.218;5.964;2023-03-08T04:34:27;40.0;30.7;57.5;;
65079;Laerm;52655;52.218;5.964;2023-03-08T04:36:27;39.3;30.8;56.6;;
65079;Laerm;52655;52.218;5.964;2023-03-08T04:38:27;33.9;30.6;45.3;;
65079;Laerm;52655;52.218;5.964;2023-03-08T04:40:27;35.3;30.1;52.6;;
65079;Laerm;52655;52.218;5.964;2023-03-08T04:42:27;31.4;30.2;33.0;;
65079;Laerm;52655;52.218;5.964;2023-03-08T04:44:27;32.9;30.1;40.2;;
65079;Laerm;52655;52.218;5.964;2023-03-08T04:46:27;31.3;30.0;38.6;;
65079;Laerm;52655;52.218;5.964;2023-03-08T04:48:28;37.1;29.8;54.6;;
65079;Laerm;52655;52.218;5.964;2023-03-08T04:50:28;36.4;29.9;50.8;;
65079;Laerm;52655;52.218;5.964;2023-03-08T04:52:28;38.4;30.4;55.0;;
65079;Laerm;52655;52.218;5.964;2023-03-08T04:54:28;38.9;31.0;54.2;;
65079;Laerm;52655;52.218;5.964;2023-03-08T04:56:28;41.0;29.8;59.0;;
65079;Laerm;52655;52.218;5.964;2023-03-08T04:58:28;40.5;29.8;58.1;;
65079;Laerm;52655;52.218;5.964;2023-03-08T05:00:28;40.0;29.9;52.7;;
65079;Laerm;52655;52.218;5.964;2023-03-08T05:02:28;38.4;30.3;52.7;;
65079;Laerm;52655;52.218;5.964;2023-03-08T05:04:28;41.8;30.6;54.8;;
65079;Laerm;52655;52.218;5.964;2023-03-08T05:06:28;39.5;29.2;52.7;;
65079;Laerm;52655;52.218;5.964;2023-03-08T05:08:28;44.4;30.9;57.8;;
65079;Laerm;52655;52.218;5.964;2023-03-08T05:12:28;36.0;29.8;47.6;;
65079;Laerm;52655;52.218;5.964;2023-03-08T05:16:28;41.1;30.4;56.3;;
65079;Laerm;52655;52.218;5.964;2023-03-08T05:18:28;38.2;31.1;50.3;;
65079;Laerm;52655;52.218;5.964;2023-03-08T05:20:28;35.7;31.2;48.0;;
65079;Laerm;52655;52.218;5.964;2023-03-08T05:24:29;39.5;30.7;55.3;;
65079;Laerm;52655;52.218;5.964;2023-03-08T05:26:29;37.1;31.3;53.4;;
65079;Laerm;52655;52.218;5.964;2023-03-08T05:28:30;40.9;32.6;53.6;;
65079;Laerm;52655;52.218;5.964;2023-03-08T05:30:29;39.3;31.7;56.8;;
65079;Laerm;52655;52.218;5.964;2023-03-08T05:32:29;39.9;32.4;54.1;;
65079;Laerm;52655;52.218;5.964;2023-03-08T05:34:29;42.7;32.6;54.9;;
65079;Laerm;52655;52.218;5.964;2023-03-08T05:38:29;40.0;31.1;53.6;;
65079;Laerm;52655;52.218;5.964;2023-03-08T05:40:29;40.0;31.5;56.6;;
65079;Laerm;52655;52.218;5.964;2023-03-08T05:42:29;34.9;30.8;49.1;;
65079;Laerm;52655;52.218;5.964;2023-03-08T05:44:29;43.0;31.5;58.3;;
65079;Laerm;52655;52.218;5.964;2023-03-08T05:46:29;42.3;31.6;55.0;;
65079;Laerm;52655;52.218;5.964;2023-03-08T05:48:30;47.7;34.5;61.5;;
65079;Laerm;52655;52.218;5.964;2023-03-08T05:50:29;42.2;33.4;54.5;;
65079;Laerm;52655;52.218;5.964;2023-03-08T05:52:29;46.7;34.1;62.5;;
65079;Laerm;52655;52.218;5.964;2023-03-08T05:54:29;45.6;33.8;58.5;;
65079;Laerm;52655;52.218;5.964;2023-03-08T05:56:30;43.1;33.6;55.8;;
65079;Laerm;52655;52.218;5.964;2023-03-08T05:58:30;43.5;33.1;55.5;;
65079;Laerm;52655;52.218;5.964;2023-03-08T06:00:30;43.0;34.3;57.8;;
65079;Laerm;52655;52.218;5.964;2023-03-08T06:02:30;45.8;34.2;58.1;;
65079;Laerm;52655;52.218;5.964;2023-03-08T06:04:30;41.9;33.2;60.0;;
65079;Laerm;52655;52.218;5.964;2023-03-08T06:06:30;49.7;33.6;72.0;;
65079;Laerm;52655;52.218;5.964;2023-03-08T06:08:30;46.1;33.6;57.4;;
65079;Laerm;52655;52.218;5.964;2023-03-08T06:10:30;49.2;34.2;65.0;;
65079;Laerm;52655;52.218;5.964;2023-03-08T06:12:30;47.1;32.4;66.0;;
65079;Laerm;52655;52.218;5.964;2023-03-08T06:14:30;41.2;32.1;53.3;;
65079;Laerm;52655;52.218;5.964;2023-03-08T06:18:30;42.8;33.4;57.3;;
65079;Laerm;52655;52.218;5.964;2023-03-08T06:26:31;44.0;32.1;59.8;;
65079;Laerm;52655;52.218;5.964;2023-03-08T06:28:30;45.5;34.2;57.4;;
65079;Laerm;52655;52.218;5.964;2023-03-08T06:30:30;45.6;36.3;58.1;;
65079;Laerm;52655;52.218;5.964;2023-03-08T06:32:31;40.4;32.5;51.4;;
65079;Laerm;52655;52.218;5.964;2023-03-08T06:34:31;44.9;32.7;57.6;;
65079;Laerm;52655;52.218;5.964;2023-03-08T06:36:31;43.6;34.9;55.0;;
65079;Laerm;52655;52.218;5.964;2023-03-08T06:39:16;44.4;33.2;55.3;;
65079;Laerm;52655;52.218;5.964;2023-03-08T06:40:31;40.9;32.3;53.0;;
65079;Laerm;52655;52.218;5.964;2023-03-08T06:42:31;44.4;33.5;56.9;;
65079;Laerm;52655;52.218;5.964;2023-03-08T06:44:32;43.2;33.7;56.4;;
65079;Laerm;52655;52.218;5.964;2023-03-08T06:46:31;47.7;35.3;58.4;;
65079;Laerm;52655;52.218;5.964;2023-03-08T06:48:31;46.0;33.3;55.7;;
65079;Laerm;52655;52.218;5.964;2023-03-08T06:50:31;45.2;34.6;60.0;;
65079;Laerm;52655;52.218;5.964;2023-03-08T06:52:31;49.9;35.9;64.0;;
65079;Laerm;52655;52.218;5.964;2023-03-08T06:54:31;51.6;38.0;62.8;;
65079;Laerm;52655;52.218;5.964;2023-03-08T06:56:31;51.9;46.4;61.8;;
65079;Laerm;52655;52.218;5.964;2023-03-08T06:58:31;53.5;48.4;59.9;;
65079;Laerm;52655;52.218;5.964;2023-03-08T07:02:31;55.2;49.2;64.9;;
65079;Laerm;52655;52.218;5.964;2023-03-08T07:04:31;53.8;49.5;59.6;;
65079;Laerm;52655;52.218;5.964;2023-03-08T07:06:32;53.8;49.7;60.0;;
65079;Laerm;52655;52.218;5.964;2023-03-08T07:08:47;54.6;50.0;60.0;;
65079;Laerm;52655;52.218;5.964;2023-03-08T07:11:48;53.5;49.2;63.0;;
65079;Laerm;52655;52.218;5.964;2023-03-08T07:15:18;54.6;49.4;63.2;;
65079;Laerm;52655;52.218;5.964;2023-03-08T07:17:33;54.1;49.1;59.7;;
65079;Laerm;52655;52.218;5.964;2023-03-08T07:19:03;54.7;50.3;58.7;;
65079;Laerm;52655;52.218;5.964;2023-03-08T07:22:32;52.8;47.4;61.9;;
65079;Laerm;52655;52.218;5.964;2023-03-08T07:25:33;51.0;45.8;57.5;;
65079;Laerm;52655;52.218;5.964;2023-03-08T07:27:49;50.2;45.1;58.9;;
65079;Laerm;52655;52.218;5.964;2023-03-08T07:30:32;50.1;44.0;61.5;;
65079;Laerm;52655;52.218;5.964;2023-03-08T07:32:32;49.7;42.7;60.5;;
65079;Laerm;52655;52.218;5.964;2023-03-08T07:34:32;51.5;41.9;58.5;;
65079;Laerm;52655;52.218;5.964;2023-03-08T07:36:32;47.6;40.9;56.2;;
65079;Laerm;52655;52.218;5.964;2023-03-08T07:38:32;51.0;43.6;61.5;;
65079;Laerm;52655;52.218;5.964;2023-03-08T07:41:18;47.7;37.4;58.4;;
65079;Laerm;52655;52.218;5.964;2023-03-08T07:42:32;46.0;37.9;55.1;;
65079;Laerm;52655;52.218;5.964;2023-03-08T07:44:33;46.5;41.8;52.5;;
65079;Laerm;52655;52.218;5.964;2023-03-08T07:46:33;48.4;37.3;58.5;;
65079;Laerm;52655;52.218;5.964;2023-03-08T07:48:33;48.4;41.2;57.5;;
65079;Laerm;52655;52.218;5.964;2023-03-08T07:50:33;48.4;39.5;57.9;;
65079;Laerm;52655;52.218;5.964;2023-03-08T07:52:33;46.4;36.9;62.1;;
65079;Laerm;52655;52.218;5.964;2023-03-08T07:54:33;45.9;37.1;55.2;;
65079;Laerm;52655;52.218;5.964;2023-03-08T07:56:33;46.9;38.2;59.8;;
65079;Laerm;52655;52.218;5.964;2023-03-08T07:58:33;45.1;35.9;56.9;;
65079;Laerm;52655;52.218;5.964;2023-03-08T08:00:33;47.3;35.8;59.5;;
65079;Laerm;52655;52.218;5.964;2023-03-08T08:02:33;52.8;35.6;67.3;;
65079;Laerm;52655;52.218;5.964;2023-03-08T08:04:33;48.4;38.4;61.8;;
65079;Laerm;52655;52.218;5.964;2023-03-08T08:07:18;48.3;38.4;69.7;;
65079;Laerm;52655;52.218;5.964;2023-03-08T08:09:18;47.4;37.3;63.2;;
65079;Laerm;52655;52.218;5.964;2023-03-08T08:10:33;45.2;35.7;56.8;;
65079;Laerm;52655;52.218;5.964;2023-03-08T08:12:33;46.5;36.4;66.2;;
65079;Laerm;52655;52.218;5.964;2023-03-08T08:14:33;46.3;35.4;65.8;;
65079;Laerm;52655;52.218;5.964;2023-03-08T08:16:34;44.0;35.4;53.9;;
65079;Laerm;52655;52.218;5.964;2023-03-08T08:20:33;43.7;34.9;58.8;;
65079;Laerm;52655;52.218;5.964;2023-03-08T08:22:34;41.8;35.3;53.5;;
65079;Laerm;52655;52.218;5.964;2023-03-08T08:24:34;44.8;36.4;55.0;;
65079;Laerm;52655;52.218;5.964;2023-03-08T08:26:34;46.4;35.8;58.6;;
65079;Laerm;52655;52.218;5.964;2023-03-08T08:28:34;45.7;35.8;57.6;;
65079;Laerm;52655;52.218;5.964;2023-03-08T08:30:34;43.8;34.6;56.2;;
65079;Laerm;52655;52.218;5.964;2023-03-08T08:32:34;46.9;36.6;59.8;;
65079;Laerm;52655;52.218;5.964;2023-03-08T08:34:34;44.6;34.1;57.3;;
65079;Laerm;52655;52.218;5.964;2023-03-08T08:36:34;51.2;38.1;71.0;;
65079;Laerm;52655;52.218;5.964;2023-03-08T08:38:34;51.2;36.0;68.0;;
65079;Laerm;52655;52.218;5.964;2023-03-08T08:40:34;44.7;34.6;59.3;;
65079;Laerm;52655;52.218;5.964;2023-03-08T08:44:34;42.8;35.7;58.0;;
65079;Laerm;52655;52.218;5.964;2023-03-08T08:46:34;43.5;37.0;54.8;;
65079;Laerm;52655;52.218;5.964;2023-03-08T08:48:34;48.3;36.3;64.9;;
65079;Laerm;52655;52.218;5.964;2023-03-08T08:50:36;47.0;37.7;57.8;;
65079;Laerm;52655;52.218;5.964;2023-03-08T08:52:34;45.9;35.3;58.4;;
65079;Laerm;52655;52.218;5.964;2023-03-08T08:54:34;52.3;37.8;65.7;;
65079;Laerm;52655;52.218;5.964;2023-03-08T08:56:34;45.6;36.0;61.8;;
65079;Laerm;52655;52.218;5.964;2023-03-08T08:58:35;51.0;37.8;66.0;;
65079;Laerm;52655;52.218;5.964;2023-03-08T09:00:35;43.1;36.5;56.5;;
65079;Laerm;52655;52.218;5.964;2023-03-08T09:02:35;47.0;36.5;61.2;;
65079;Laerm;52655;52.218;5.964;2023-03-08T09:04:35;45.1;36.6;55.3;;
65079;Laerm;52655;52.218;5.964;2023-03-08T09:06:35;46.3;37.9;58.3;;
65079;Laerm;52655;52.218;5.964;2023-03-08T09:09:20;44.0;37.8;53.8;;
65079;Laerm;52655;52.218;5.964;2023-03-08T09:10:38;44.9;37.2;57.4;;
65079;Laerm;52655;52.218;5.964;2023-03-08T09:12:35;45.2;38.1;55.2;;
65079;Laerm;52655;52.218;5.964;2023-03-08T09:14:35;46.7;38.2;58.8;;
65079;Laerm;52655;52.218;5.964;2023-03-08T09:16:35;44.3;36.7;57.1;;
65079;Laerm;52655;52.218;5.964;2023-03-08T09:18:35;44.5;35.5;58.4;;
65079;Laerm;52655;52.218;5.964;2023-03-08T09:20:35;43.3;36.6;57.6;;
65079;Laerm;52655;52.218;5.964;2023-03-08T09:24:35;48.1;37.0;67.0;;
65079;Laerm;52655;52.218;5.964;2023-03-08T09:26:35;47.4;37.2;62.2;;
65079;Laerm;52655;52.218;5.964;2023-03-08T09:28:36;46.7;38.2;61.0;;
65079;Laerm;52655;52.218;5.964;2023-03-08T09:30:35;45.7;37.6;55.5;;
65079;Laerm;52655;52.218;5.964;2023-03-08T09:34:36;45.4;37.9;59.7;;
65079;Laerm;52655;52.218;5.964;2023-03-08T09:36:36;44.3;35.3;59.3;;
65079;Laerm;52655;52.218;5.964;2023-03-08T09:39:21;45.6;36.7;58.8;;
65079;Laerm;52655;52.218;5.964;2023-03-08T09:40:47;44.3;36.8;54.5;;
65079;Laerm;52655;52.218;5.964;2023-03-08T09:42:36;48.7;38.0;62.1;;
65079;Laerm;52655;52.218;5.964;2023-03-08T09:44:59;44.0;36.6;56.7;;
65079;Laerm;52655;52.218;5.964;2023-03-08T09:46:37;48.7;35.4;68.2;;
65079;Laerm;52655;52.218;5.964;2023-03-08T09:48:36;47.0;36.8;67.7;;
65079;Laerm;52655;52.218;5.964;2023-03-08T09:51:21;44.5;36.6;53.8;;
65079;Laerm;52655;52.218;5.964;2023-03-08T09:52:41;47.9;38.3;58.8;;
65079;Laerm;52655;52.218;5.964;2023-03-08T09:54:37;48.2;40.7;59.8;;
65079;Laerm;52655;52.218;5.964;2023-03-08T09:56:37;48.9;40.6;59.8;;
65079;Laerm;52655;52.218;5.964;2023-03-08T09:58:38;47.7;42.1;57.1;;
65079;Laerm;52655;52.218;5.964;2023-03-08T10:00:37;48.0;43.1;57.9;;
65079;Laerm;52655;52.218;5.964;2023-03-08T10:02:55;49.2;42.2;61.0;;
65079;Laerm;52655;52.218;5.964;2023-03-08T10:05:06;51.5;42.1;63.5;;
65079;Laerm;52655;52.218;5.964;2023-03-08T10:06:55;46.6;41.1;56.7;;
65079;Laerm;52655;52.218;5.964;2023-03-08T10:08:52;48.4;40.1;62.0;;
65079;Laerm;52655;52.218;5.964;2023-03-08T10:11:05;49.4;40.6;61.9;;
65079;Laerm;52655;52.218;5.964;2023-03-08T10:13:00;48.4;40.3;62.5;;
65079;Laerm;52655;52.218;5.964;2023-03-08T10:14:44;48.7;40.8;62.2;;
65079;Laerm;52655;52.218;5.964;2023-03-08T10:16:44;50.0;39.5;64.5;;
65079;Laerm;52655;52.218;5.964;2023-03-08T10:20:39;47.4;38.6;62.6;;
65079;Laerm;52655;52.218;5.964;2023-03-08T10:22:37;48.1;38.8;66.0;;
65079;Laerm;52655;52.218;5.964;2023-03-08T10:24:48;57.5;40.4;72.1;;
65079;Laerm;52655;52.218;5.964;2023-03-08T10:26:37;48.2;38.3;63.0;;
65079;Laerm;52655;52.218;5.964;2023-03-08T10:28:37;47.2;38.9;55.2;;
65079;Laerm;52655;52.218;5.964;2023-03-08T10:30:40;46.9;39.5;54.3;;
65079;Laerm;52655;52.218;5.964;2023-03-08T10:32:41;44.7;38.6;54.1;;
65079;Laerm;52655;52.218;5.964;2023-03-08T10:34:37;48.1;39.9;60.1;;
65079;Laerm;52655;52.218;5.964;2023-03-08T10:36:45;51.4;43.5;58.8;;
65079;Laerm;52655;52.218;5.964;2023-03-08T10:38:38;65.4;37.8;81.0;;
65079;Laerm;52655;52.218;5.964;2023-03-08T10:40:37;46.1;38.6;59.3;;
65079;Laerm;52655;52.218;5.964;2023-03-08T10:42:41;43.8;37.6;53.2;;
65079;Laerm;52655;52.218;5.964;2023-03-08T10:44:42;45.9;37.6;59.1;;
65079;Laerm;52655;52.218;5.964;2023-03-08T10:46:45;46.4;39.5;59.1;;
65079;Laerm;52655;52.218;5.964;2023-03-08T10:48:38;49.2;39.3;65.0;;
65079;Laerm;52655;52.218;5.964;2023-03-08T10:50:38;52.3;38.0;64.2;;
65079;Laerm;52655;52.218;5.964;2023-03-08T10:52:39;49.7;38.4;64.0;;
65079;Laerm;52655;52.218;5.964;2023-03-08T10:54:38;47.4;38.0;60.3;;
65079;Laerm;52655;52.218;5.964;2023-03-08T10:58:46;46.9;38.4;62.0;;
65079;Laerm;52655;52.218;5.964;2023-03-08T11:00:42;46.4;38.5;59.3;;
65079;Laerm;52655;52.218;5.964;2023-03-08T11:02:38;44.8;38.2;56.6;;
65079;Laerm;52655;52.218;5.964;2023-03-08T11:04:48;48.9;38.6;60.4;;
65079;Laerm;52655;52.218;5.964;2023-03-08T11:06:38;54.6;38.6;72.5;;
65079;Laerm;52655;52.218;5.964;2023-03-08T11:08:49;48.9;38.4;62.5;;
65079;Laerm;52655;52.218;5.964;2023-03-08T11:10:38;49.5;40.0;62.8;;
65079;Laerm;52655;52.218;5.964;2023-03-08T11:12:38;45.5;38.5;54.1;;
65079;Laerm;52655;52.218;5.964;2023-03-08T11:14:38;43.9;38.0;54.4;;
65079;Laerm;52655;52.218;5.964;2023-03-08T11:16:44;44.7;38.3;52.6;;
65079;Laerm;52655;52.218;5.964;2023-03-08T11:18:57;49.2;38.3;66.0;;
65079;Laerm;52655;52.218;5.964;2023-03-08T11:20:49;49.2;41.4;62.5;;
65079;Laerm;52655;52.218;5.964;2023-03-08T11:22:43;46.9;39.6;56.1;;
65079;Laerm;52655;52.218;5.964;2023-03-08T11:24:51;46.7;39.0;59.8;;
65079;Laerm;52655;52.218;5.964;2023-03-08T11:27:13;47.2;39.3;58.1;;
65079;Laerm;52655;52.218;5.964;2023-03-08T11:29:09;46.2;38.5;57.3;;
65079;Laerm;52655;52.218;5.964;2023-03-08T11:31:37;49.3;38.4;68.0;;
65079;Laerm;52655;52.218;5.964;2023-03-08T11:33:58;50.2;39.8;65.0;;
65079;Laerm;52655;52.218;5.964;2023-03-08T11:35:47;51.2;39.9;66.0;;
65079;Laerm;52655;52.218;5.964;2023-03-08T11:38:39;45.3;37.5;58.2;;
65079;Laerm;52655;52.218;5.964;2023-03-08T11:40:56;44.9;37.1;55.2;;
65079;Laerm;52655;52.218;5.964;2023-03-08T11:43:00;46.7;38.2;58.1;;
65079;Laerm;52655;52.218;5.964;2023-03-08T11:45:14;51.7;36.1;64.0;;
65079;Laerm;52655;52.218;5.964;2023-03-08T11:47:31;50.5;35.1;70.0;;
65079;Laerm;52655;52.218;5.964;2023-03-08T11:49:39;47.2;38.4;58.7;;
65079;Laerm;52655;52.218;5.964;2023-03-08T11:51:17;45.7;36.6;55.8;;
65079;Laerm;52655;52.218;5.964;2023-03-08T11:53:04;48.6;37.0;61.2;;
65079;Laerm;52655;52.218;5.964;2023-03-08T11:55:05;45.4;36.2;60.7;;
65079;Laerm;52655;52.218;5.964;2023-03-08T11:56:54;48.4;38.8;59.8;;
65079;Laerm;52655;52.218;5.964;2023-03-08T11:58:42;44.1;37.0;54.5;;
65079;Laerm;52655;52.218;5.964;2023-03-08T12:00:55;45.8;37.6;55.2;;
65079;Laerm;52655;52.218;5.964;2023-03-08T12:02:47;50.0;37.0;61.3;;
65079;Laerm;52655;52.218;5.964;2023-03-08T12:04:45;49.9;38.0;62.1;;
65079;Laerm;52655;52.218;5.964;2023-03-08T12:06:40;47.1;39.4;66.5;;
65079;Laerm;52655;52.218;5.964;2023-03-08T12:08:40;48.2;38.2;65.0;;
65079;Laerm;52655;52.218;5.964;2023-03-08T12:10:52;48.7;39.3;60.5;;
65079;Laerm;52655;52.218;5.964;2023-03-08T12:12:41;49.9;38.9;64.0;;
65079;Laerm;52655;52.218;5.964;2023-03-08T12:14:43;47.4;40.0;63.0;;
65079;Laerm;52655;52.218;5.964;2023-03-08T12:16:46;46.9;40.0;62.8;;
65079;Laerm;52655;52.218;5.964;2023-03-08T12:18:41;46.4;40.6;55.9;;
65079;Laerm;52655;52.218;5.964;2023-03-08T12:20:43;48.7;41.0;63.0;;
65079;Laerm;52655;52.218;5.964;2023-03-08T12:23:03;48.2;40.3;62.8;;
65079;Laerm;52655;52.218;5.964;2023-03-08T12:25:07;47.7;40.8;58.6;;
65079;Laerm;52655;52.218;5.964;2023-03-08T12:26:45;47.2;40.2;56.0;;
65079;Laerm;52655;52.218;5.964;2023-03-08T12:28:41;46.9;40.2;55.7;;
65079;Laerm;52655;52.218;5.964;2023-03-08T12:31:30;46.4;39.3;56.2;;
65079;Laerm;52655;52.218;5.964;2023-03-08T12:34:47;46.8;40.9;55.8;;
65079;Laerm;52655;52.218;5.964;2023-03-08T12:36:42;44.4;38.9;53.5;;
65079;Laerm;52655;52.218;5.964;2023-03-08T12:38:44;45.6;38.2;54.1;;
65079;Laerm;52655;52.218;5.964;2023-03-08T12:40:55;47.0;39.3;56.5;;
65079;Laerm;52655;52.218;5.964;2023-03-08T12:42:41;44.0;38.0;53.9;;
65079;Laerm;52655;52.218;5.964;2023-03-08T12:44:41;46.4;37.6;59.7;;
65079;Laerm;52655;52.218;5.964;2023-03-08T12:48:46;44.9;36.9;55.8;;
65079;Laerm;52655;52.218;5.964;2023-03-08T12:50:53;46.4;39.2;54.7;;
65079;Laerm;52655;52.218;5.964;2023-03-08T12:52:41;46.7;38.5;61.8;;
65079;Laerm;52655;52.218;5.964;2023-03-08T12:54:41;47.4;37.9;58.5;;
65079;Laerm;52655;52.218;5.964;2023-03-08T12:56:50;45.2;38.1;54.4;;
65079;Laerm;52655;52.218;5.964;2023-03-08T13:00:41;47.1;37.9;57.4;;